createdAt,value
2018-09-14T00:00:13.946Z,19.28
2018-09-14T00:02:42.904Z,19.03
2018-09-14T00:05:11.909Z,19.00
2018-09-14T00:07:41.127Z,19.05
2018-09-14T00:10:14.282Z,18.97
2018-09-14T00:12:43.380Z,18.89
2018-09-14T00:15:12.425Z,18.81
2018-09-14T00:17:41.457Z,18.74
2018-09-14T00:20:13.220Z,18.68
2018-09-14T00:25:35.314Z,18.70
2018-09-14T00:28:04.220Z,18.67
2018-09-14T00:30:36.475Z,18.61
2018-09-14T00:33:05.614Z,18.66
2018-09-14T00:35:34.566Z,18.64
2018-09-14T00:38:04.600Z,18.66
2018-09-14T00:40:33.683Z,18.71
2018-09-14T00:43:04.806Z,18.78
2018-09-14T00:45:40.810Z,18.78
2018-09-14T00:48:10.747Z,18.77
2018-09-14T00:50:39.718Z,18.74
2018-09-14T00:53:14.564Z,18.71
2018-09-14T00:58:35.217Z,18.61
2018-09-14T01:01:04.234Z,18.53
2018-09-14T01:03:52.378Z,18.48
2018-09-14T01:06:22.381Z,18.39
2018-09-14T01:08:52.027Z,18.32
2018-09-14T01:11:21.398Z,18.24
2018-09-14T01:13:53.828Z,18.16
2018-09-14T01:16:32.859Z,18.09
2018-09-14T01:19:07.681Z,17.98
2018-09-14T01:21:40.443Z,17.91
2018-09-14T01:24:10.108Z,17.82
2018-09-14T01:26:46.098Z,17.78
2018-09-14T01:29:18.965Z,17.75
2018-09-14T01:31:48.180Z,17.68
2018-09-14T01:34:25.521Z,17.62
2018-09-14T01:36:58.310Z,17.56
2018-09-14T01:39:27.408Z,17.53
2018-09-14T01:41:57.223Z,17.51
2018-09-14T01:44:26.228Z,17.49
2018-09-14T01:46:55.285Z,17.44
2018-09-14T01:49:28.989Z,17.44
2018-09-14T01:52:11.227Z,17.43
2018-09-14T01:54:43.885Z,17.42
2018-09-14T01:57:19.372Z,17.43
2018-09-14T01:59:48.276Z,17.42
2018-09-14T02:02:17.370Z,17.42
2018-09-14T02:04:47.347Z,17.39
2018-09-14T02:07:17.282Z,17.37
2018-09-14T02:09:48.471Z,17.38
2018-09-14T02:12:17.538Z,17.40
2018-09-14T02:14:47.640Z,17.38
2018-09-14T02:17:23.098Z,17.37
2018-09-14T02:19:52.093Z,17.38
2018-09-14T02:22:21.066Z,17.38
2018-09-14T02:24:50.143Z,17.37
2018-09-14T02:27:23.738Z,17.35
2018-09-14T02:29:58.056Z,17.32
2018-09-14T02:32:33.490Z,17.25
2018-09-14T02:35:02.900Z,17.25
2018-09-14T02:37:31.875Z,17.17
2018-09-14T02:40:06.992Z,17.13
2018-09-14T02:42:39.689Z,17.10
2018-09-14T02:45:08.846Z,17.11
2018-09-14T02:47:37.842Z,17.13
2018-09-14T02:50:07.340Z,17.14
2018-09-14T02:52:36.659Z,17.17
2018-09-14T02:55:05.826Z,17.20
2018-09-14T02:57:34.730Z,17.24
2018-09-14T03:00:10.064Z,17.26
2018-09-14T03:02:39.228Z,17.29
2018-09-14T03:05:08.231Z,17.29
2018-09-14T03:07:39.046Z,17.32
2018-09-14T03:10:12.161Z,17.33
2018-09-14T03:12:41.605Z,17.33
2018-09-14T03:15:11.570Z,17.30
2018-09-14T03:17:41.525Z,17.32
2018-09-14T03:20:10.976Z,17.31
2018-09-14T03:22:39.851Z,17.33
2018-09-14T03:25:09.917Z,17.34
2018-09-14T03:27:39.198Z,17.32
2018-09-14T03:30:08.089Z,17.30
2018-09-14T03:32:36.988Z,17.35
2018-09-14T03:35:06.721Z,17.38
2018-09-14T03:37:42.108Z,17.41
2018-09-14T03:40:11.477Z,17.35
2018-09-14T03:42:40.684Z,17.39
2018-09-14T03:45:09.731Z,17.35
2018-09-14T03:47:39.016Z,17.34
2018-09-14T03:50:08.120Z,17.31
2018-09-14T03:52:37.153Z,17.28
2018-09-14T03:55:07.632Z,17.25
2018-09-14T03:57:36.555Z,17.19
2018-09-14T04:00:05.459Z,17.20
2018-09-14T04:02:35.018Z,17.17
2018-09-14T04:05:04.142Z,17.16
2018-09-14T04:07:33.119Z,17.13
2018-09-14T04:10:02.612Z,17.15
2018-09-14T04:12:31.481Z,17.17
2018-09-14T04:15:00.357Z,17.23
2018-09-14T04:17:29.342Z,17.24
2018-09-14T04:19:58.334Z,17.29
2018-09-14T04:22:27.301Z,17.32
2018-09-14T04:24:56.183Z,17.35
2018-09-14T04:27:25.290Z,17.35
2018-09-14T04:29:54.209Z,17.36
2018-09-14T04:32:23.115Z,17.37
2018-09-14T04:34:52.111Z,17.35
2018-09-14T04:37:21.267Z,17.41
2018-09-14T04:39:50.427Z,17.43
2018-09-14T04:42:19.462Z,17.48
2018-09-14T04:44:48.412Z,17.59
2018-09-14T04:47:17.341Z,17.71
2018-09-14T04:49:46.175Z,17.77
2018-09-14T04:52:15.257Z,17.83
2018-09-14T04:54:44.619Z,17.89
2018-09-14T04:57:13.621Z,17.98
2018-09-14T04:59:42.681Z,18.09
2018-09-14T05:02:12.003Z,18.18
2018-09-14T05:04:40.960Z,18.22
2018-09-14T05:07:17.307Z,18.26
2018-09-14T05:10:09.272Z,18.33
2018-09-14T05:12:38.314Z,18.36
2018-09-14T05:15:07.364Z,18.30
2018-09-14T05:17:36.223Z,18.27
2018-09-14T05:20:05.123Z,18.40
2018-09-14T05:22:34.302Z,18.53
2018-09-14T05:25:03.383Z,18.61
2018-09-14T05:27:32.316Z,18.70
2018-09-14T05:30:01.347Z,18.75
2018-09-14T05:32:30.544Z,18.75
2018-09-14T05:35:00.856Z,18.77
2018-09-14T05:37:30.818Z,18.87
2018-09-14T05:40:03.162Z,18.93
2018-09-14T05:42:48.613Z,18.99
2018-09-14T05:45:23.309Z,19.07
2018-09-14T05:48:04.377Z,19.17
2018-09-14T05:50:42.015Z,19.26
2018-09-14T05:53:10.999Z,19.37
2018-09-14T05:55:41.880Z,19.48
2018-09-14T05:58:11.856Z,19.59
2018-09-14T06:00:40.906Z,19.70
2018-09-14T06:03:10.214Z,19.76
2018-09-14T06:05:40.161Z,19.80
2018-09-14T06:08:09.157Z,19.87
2018-09-14T06:10:38.754Z,19.92
2018-09-14T06:13:09.658Z,19.99
2018-09-14T06:15:38.570Z,20.08
2018-09-14T06:18:08.009Z,20.17
2018-09-14T06:20:36.926Z,20.27
2018-09-14T06:23:05.997Z,20.42
2018-09-14T06:25:35.182Z,20.52
2018-09-14T06:28:04.174Z,20.60
2018-09-14T06:30:34.504Z,20.70
2018-09-14T06:33:03.420Z,20.77
2018-09-14T06:35:32.337Z,20.99
2018-09-14T06:38:01.388Z,21.11
2018-09-14T06:40:30.273Z,21.24
2018-09-14T06:43:01.898Z,21.38
2018-09-14T06:45:30.817Z,21.52
2018-09-14T06:47:59.948Z,21.64
2018-09-14T06:50:29.598Z,21.73
2018-09-14T06:52:59.316Z,21.82
2018-09-14T06:55:28.278Z,21.99
2018-09-14T06:57:57.575Z,22.14
2018-09-14T07:00:26.750Z,22.25
2018-09-14T07:02:58.012Z,22.41
2018-09-14T07:05:26.864Z,22.49
2018-09-14T07:07:55.892Z,22.63
2018-09-14T07:10:25.156Z,22.74
2018-09-14T07:12:53.979Z,22.89
2018-09-14T07:15:23.116Z,22.99
2018-09-14T07:17:52.399Z,23.05
2018-09-14T07:20:21.264Z,23.11
2018-09-14T07:22:50.080Z,23.18
2018-09-14T07:25:19.464Z,23.30
2018-09-14T07:27:49.305Z,23.47
2018-09-14T07:30:18.226Z,23.63
2018-09-14T07:32:48.577Z,23.74
2018-09-14T07:35:17.517Z,23.79
2018-09-14T07:37:46.391Z,23.88
2018-09-14T07:40:15.845Z,23.88
2018-09-14T07:42:44.923Z,23.93
2018-09-14T07:45:13.732Z,24.01
2018-09-14T07:47:42.754Z,24.18
2018-09-14T07:50:11.489Z,24.33
2018-09-14T07:52:40.657Z,24.43
2018-09-14T07:55:09.629Z,24.50
2018-09-14T07:57:39.554Z,24.62
2018-09-14T08:00:08.454Z,24.73
2018-09-14T08:02:37.896Z,24.78
2018-09-14T08:05:07.027Z,24.82
2018-09-14T08:07:35.876Z,24.90
2018-09-14T08:10:05.170Z,24.94
2018-09-14T08:12:34.109Z,25.11
2018-09-14T08:15:03.208Z,25.21
2018-09-14T08:17:32.298Z,25.25
2018-09-14T08:20:01.545Z,25.31
2018-09-14T08:22:30.483Z,25.43
2018-09-14T08:24:59.948Z,25.51
2018-09-14T08:27:28.877Z,25.62
2018-09-14T08:29:57.934Z,25.72
2018-09-14T08:32:27.265Z,25.74
2018-09-14T08:34:56.227Z,25.79
2018-09-14T08:37:25.222Z,25.74
2018-09-14T08:39:54.347Z,25.77
2018-09-14T08:42:23.502Z,25.88
2018-09-14T08:44:52.644Z,25.88
2018-09-14T08:47:21.580Z,26.05
2018-09-14T08:49:52.544Z,26.05
2018-09-14T08:52:22.824Z,26.10
2018-09-14T08:54:51.750Z,26.20
2018-09-14T08:57:20.661Z,26.20
2018-09-14T08:59:50.019Z,26.27
2018-09-14T09:02:19.098Z,26.21
2018-09-14T09:04:48.194Z,26.37
2018-09-14T09:07:18.764Z,26.55
2018-09-14T09:09:47.646Z,26.71
2018-09-14T09:12:16.755Z,26.78
2018-09-14T09:14:45.717Z,26.95
2018-09-14T09:17:14.673Z,26.89
2018-09-14T09:19:43.651Z,26.81
2018-09-14T09:22:12.884Z,26.83
2018-09-14T09:24:41.990Z,26.94
2018-09-14T09:27:10.913Z,26.94
2018-09-14T09:29:39.996Z,26.81
2018-09-14T09:32:10.041Z,26.81
2018-09-14T09:34:39.138Z,26.65
2018-09-14T09:37:08.211Z,26.63
2018-09-14T09:39:37.235Z,26.80
2018-09-14T09:42:08.790Z,27.09
2018-09-14T09:44:37.705Z,27.27
2018-09-14T09:47:06.597Z,27.42
2018-09-14T09:49:36.907Z,27.53
2018-09-14T09:52:06.201Z,27.43
2018-09-14T09:54:35.137Z,27.32
2018-09-14T09:57:04.149Z,27.29
2018-09-14T09:59:32.942Z,27.23
2018-09-14T10:02:07.389Z,27.35
2018-09-14T10:04:41.421Z,27.34
2018-09-14T10:07:11.779Z,27.44
2018-09-14T10:09:40.726Z,27.53
2018-09-14T10:12:09.839Z,27.72
2018-09-14T10:14:38.987Z,27.82
2018-09-14T10:17:07.957Z,27.96
2018-09-14T10:19:37.111Z,27.80
2018-09-14T10:22:06.545Z,27.77
2018-09-14T10:24:35.350Z,27.58
2018-09-14T10:27:04.393Z,27.76
2018-09-14T10:29:33.821Z,27.83
2018-09-14T10:32:02.848Z,27.97
2018-09-14T10:34:31.696Z,27.99
2018-09-14T10:37:01.180Z,28.00
2018-09-14T10:39:30.525Z,27.91
2018-09-14T10:41:59.463Z,27.98
2018-09-14T10:44:28.543Z,28.00
2018-09-14T10:46:57.513Z,28.14
2018-09-14T10:49:26.584Z,28.17
2018-09-14T10:51:55.537Z,28.28
2018-09-14T10:54:24.650Z,28.42
2018-09-14T10:56:53.552Z,28.42
2018-09-14T10:59:22.540Z,28.58
2018-09-14T11:01:51.350Z,28.72
2018-09-14T11:04:20.311Z,28.69
2018-09-14T11:06:49.770Z,28.93
2018-09-14T11:09:18.745Z,29.10
2018-09-14T11:11:47.848Z,29.18
2018-09-14T11:14:17.477Z,29.22
2018-09-14T11:16:46.361Z,29.32
2018-09-14T11:19:15.208Z,29.31
2018-09-14T11:21:44.467Z,29.23
2018-09-14T11:24:13.405Z,29.29
2018-09-14T11:26:42.519Z,29.38
2018-09-14T11:29:11.811Z,29.48
2018-09-14T11:31:40.680Z,29.61
2018-09-14T11:34:09.574Z,29.59
2018-09-14T11:36:38.522Z,29.62
2018-09-14T11:39:09.802Z,29.69
2018-09-14T11:41:39.015Z,29.79
2018-09-14T11:44:07.921Z,29.91
2018-09-14T11:46:36.965Z,29.87
2018-09-14T11:49:05.765Z,30.00
2018-09-14T11:51:34.633Z,29.99
2018-09-14T11:54:03.798Z,29.45
2018-09-14T11:56:32.966Z,29.03
2018-09-14T11:59:02.010Z,29.51
2018-09-14T12:01:31.004Z,29.66
2018-09-14T12:04:00.100Z,29.68
2018-09-14T12:06:29.031Z,29.68
2018-09-14T12:08:57.923Z,29.85
2018-09-14T12:11:27.228Z,29.77
2018-09-14T12:13:56.139Z,29.78
2018-09-14T12:16:25.103Z,29.90
2018-09-14T12:18:54.106Z,29.94
2018-09-14T12:21:22.849Z,30.22
2018-09-14T12:23:51.933Z,30.34
2018-09-14T12:26:21.383Z,30.32
2018-09-14T12:28:50.144Z,30.43
2018-09-14T12:31:19.226Z,30.48
2018-09-14T12:33:48.367Z,30.58
2018-09-14T12:36:17.601Z,30.67
2018-09-14T12:38:46.614Z,30.95
2018-09-14T12:41:15.923Z,31.01
2018-09-14T12:43:44.847Z,31.09
2018-09-14T12:46:13.817Z,31.43
2018-09-14T12:48:43.205Z,31.40
2018-09-14T12:51:12.006Z,31.44
2018-09-14T12:53:40.903Z,31.57
2018-09-14T12:56:10.289Z,31.55
2018-09-14T12:58:39.265Z,31.18
2018-09-14T13:01:08.212Z,30.99
2018-09-14T13:03:37.264Z,30.79
2018-09-14T13:06:06.348Z,30.66
2018-09-14T13:08:35.288Z,30.52
2018-09-14T13:11:04.650Z,30.48
2018-09-14T13:16:12.247Z,30.52
2018-09-14T13:18:41.536Z,30.52
2018-09-14T13:21:10.495Z,30.42
2018-09-14T13:23:41.657Z,30.46
2018-09-14T13:26:10.980Z,30.63
2018-09-14T13:28:40.921Z,30.86
2018-09-14T13:31:10.655Z,30.58
2018-09-14T13:33:39.451Z,30.27
2018-09-14T13:36:08.486Z,30.38
2018-09-14T13:38:37.742Z,30.47
2018-09-14T13:41:06.988Z,30.44
2018-09-14T13:43:38.355Z,30.31
2018-09-14T13:46:10.477Z,30.15
2018-09-14T13:48:40.470Z,30.08
2018-09-14T13:51:09.407Z,30.08
2018-09-14T13:53:38.264Z,30.02
2018-09-14T13:56:07.538Z,29.83
2018-09-14T13:58:36.502Z,29.95
2018-09-14T14:01:05.452Z,29.75
2018-09-14T14:03:34.800Z,29.88
2018-09-14T14:06:03.901Z,29.78
2018-09-14T14:08:32.746Z,29.84
2018-09-14T14:11:01.589Z,29.86
2018-09-14T14:13:30.461Z,29.83
2018-09-14T14:15:59.286Z,29.60
2018-09-14T14:18:28.292Z,29.71
2018-09-14T14:20:57.333Z,29.74
2018-09-14T14:23:26.233Z,29.43
2018-09-14T14:25:55.424Z,29.18
2018-09-14T14:28:24.277Z,29.34
2018-09-14T14:30:53.406Z,29.19
2018-09-14T14:33:22.706Z,29.32
2018-09-14T14:35:51.662Z,29.19
2018-09-14T14:38:20.577Z,29.16
2018-09-14T14:40:49.997Z,29.07
2018-09-14T14:43:18.881Z,29.05
2018-09-14T14:45:47.964Z,29.04
2018-09-14T14:48:16.888Z,28.99
2018-09-14T14:50:45.729Z,28.97
2018-09-14T14:53:14.637Z,29.05
2018-09-14T14:55:43.916Z,28.98
2018-09-14T14:58:12.728Z,28.96
2018-09-14T15:00:41.583Z,28.99
2018-09-14T15:03:10.453Z,28.92
2018-09-14T15:05:40.427Z,29.04
2018-09-14T15:08:09.544Z,28.93
2018-09-14T15:10:38.743Z,28.93
2018-09-14T15:13:07.524Z,29.04
2018-09-14T15:15:36.455Z,28.99
2018-09-14T15:18:05.945Z,28.86
2018-09-14T15:20:34.817Z,28.98
2018-09-14T15:23:03.591Z,29.00
2018-09-14T15:25:32.614Z,28.91
2018-09-14T15:28:01.446Z,28.88
2018-09-14T15:30:30.437Z,28.88
2018-09-14T15:32:59.487Z,28.81
2018-09-14T15:35:28.505Z,28.80
2018-09-14T15:37:57.501Z,28.70
2018-09-14T15:40:26.447Z,28.65
2018-09-14T15:42:55.345Z,28.51
2018-09-14T15:45:24.336Z,28.40
2018-09-14T15:47:53.782Z,28.42
2018-09-14T15:50:22.772Z,28.27
2018-09-14T15:52:51.679Z,28.19
2018-09-14T15:55:21.119Z,28.18
2018-09-14T15:57:50.275Z,28.05
2018-09-14T16:00:21.963Z,28.07
2018-09-14T16:02:52.469Z,27.86
2018-09-14T16:05:21.492Z,27.73
2018-09-14T16:07:50.767Z,27.64
2018-09-14T16:10:19.984Z,27.56
2018-09-14T16:12:49.152Z,27.46
2018-09-14T16:15:18.108Z,27.26
2018-09-14T16:17:46.849Z,27.23
2018-09-14T16:20:15.805Z,27.14
2018-09-14T16:22:44.953Z,27.10
2018-09-14T16:25:13.846Z,26.98
2018-09-14T16:27:42.760Z,26.83
2018-09-14T16:30:11.533Z,26.75
2018-09-14T16:32:40.338Z,26.65
2018-09-14T16:35:09.485Z,26.71
2018-09-14T16:37:38.329Z,26.64
2018-09-14T16:40:07.416Z,26.62
2018-09-14T16:42:36.504Z,26.42
2018-09-14T16:45:05.850Z,26.38
2018-09-14T16:47:34.689Z,26.33
2018-09-14T16:50:04.012Z,26.24
2018-09-14T16:52:32.965Z,26.11
2018-09-14T16:55:01.796Z,26.01
2018-09-14T16:57:31.087Z,25.80
2018-09-14T17:00:00.062Z,25.70
2018-09-14T17:03:32.176Z,25.59
2018-09-14T17:06:01.365Z,25.38
2018-09-14T17:08:30.241Z,25.30
2018-09-14T17:10:59.357Z,25.16
2018-09-14T17:13:28.261Z,25.04
2018-09-14T17:15:57.167Z,24.94
2018-09-14T17:18:26.077Z,24.86
2018-09-14T17:20:54.905Z,24.79
2018-09-14T17:23:23.757Z,24.72
2018-09-14T17:25:52.561Z,24.67
2018-09-14T17:28:21.397Z,24.61
2018-09-14T17:30:50.240Z,24.55
2018-09-14T17:33:19.141Z,24.49
2018-09-14T17:35:47.872Z,24.45
2018-09-14T17:38:16.660Z,24.41
2018-09-14T17:40:45.865Z,24.35
2018-09-14T17:43:14.721Z,24.31
2018-09-14T17:45:43.509Z,24.28
2018-09-14T17:48:12.301Z,24.23
2018-09-14T17:50:41.124Z,24.17
2018-09-14T17:53:09.867Z,24.10
2018-09-14T17:55:39.018Z,24.02
2018-09-14T17:58:07.719Z,23.97
2018-09-14T18:00:36.601Z,23.90
2018-09-14T18:03:05.900Z,23.89
2018-09-14T18:05:34.707Z,23.85
2018-09-14T18:08:03.437Z,23.95
2018-09-14T18:10:32.406Z,24.01
2018-09-14T18:13:01.256Z,23.91
2018-09-14T18:15:30.063Z,23.87
2018-09-14T18:17:59.046Z,23.78
2018-09-14T18:20:27.936Z,23.73
2018-09-14T18:22:56.739Z,23.71
2018-09-14T18:25:25.858Z,23.66
2018-09-14T18:27:54.863Z,23.66
2018-09-14T18:30:23.622Z,23.62
2018-09-14T18:32:53.001Z,23.54
2018-09-14T18:35:21.923Z,23.48
2018-09-14T18:37:50.663Z,23.39
2018-09-14T18:40:19.827Z,23.29
2018-09-14T18:42:48.683Z,23.19
2018-09-14T18:45:17.566Z,23.15
2018-09-14T18:47:46.424Z,23.07
2018-09-14T18:50:15.246Z,23.02
2018-09-14T18:52:44.169Z,22.96
2018-09-14T18:55:13.061Z,22.93
2018-09-14T18:57:41.948Z,22.97
2018-09-14T19:00:10.745Z,23.01
2018-09-14T19:02:40.006Z,23.11
2018-09-14T19:05:08.786Z,23.14
2018-09-14T19:07:37.619Z,23.09
2018-09-14T19:10:07.266Z,23.01
2018-09-14T19:12:36.152Z,22.93
2018-09-14T19:15:05.013Z,22.84
2018-09-14T19:17:34.075Z,22.72
2018-09-14T19:20:02.868Z,22.60
2018-09-14T19:22:31.824Z,22.51
2018-09-14T19:25:01.635Z,22.44
2018-09-14T19:27:30.444Z,22.38
2018-09-14T19:29:59.305Z,22.30
2018-09-14T19:32:28.246Z,22.24
2018-09-14T19:34:57.114Z,22.17
2018-09-14T19:37:26.037Z,22.13
2018-09-14T19:39:54.876Z,22.10
2018-09-14T19:42:23.864Z,22.08
2018-09-14T19:44:52.627Z,22.07
2018-09-14T19:47:21.699Z,22.22
2018-09-14T19:49:50.661Z,22.27
2018-09-14T19:52:19.518Z,22.31
2018-09-14T19:54:48.877Z,22.29
2018-09-14T19:57:17.710Z,22.21
2018-09-14T19:59:46.435Z,22.17
2018-09-14T20:02:15.559Z,22.11
2018-09-14T20:04:44.356Z,22.14
2018-09-14T20:07:13.183Z,22.12
2018-09-14T20:09:42.508Z,22.04
2018-09-14T20:12:11.472Z,21.97
2018-09-14T20:14:40.363Z,21.97
2018-09-14T20:17:09.304Z,21.99
2018-09-14T20:19:38.089Z,21.88
2018-09-14T20:22:07.542Z,21.83
2018-09-14T20:24:36.767Z,21.75
2018-09-14T20:27:05.655Z,21.66
2018-09-14T20:29:34.520Z,21.63
2018-09-14T20:32:03.843Z,21.64
2018-09-14T20:34:32.628Z,21.66
2018-09-14T20:37:01.558Z,21.66
2018-09-14T20:39:30.925Z,21.61
2018-09-14T20:41:59.771Z,21.59
2018-09-14T20:44:29.170Z,21.57
2018-09-14T20:46:58.610Z,21.52
2018-09-14T20:49:27.435Z,21.53
2018-09-14T20:51:56.219Z,21.55
2018-09-14T20:54:25.104Z,21.48
2018-09-14T20:56:54.045Z,21.41
2018-09-14T20:59:22.967Z,21.31
2018-09-14T21:01:52.144Z,21.26
2018-09-14T21:04:20.898Z,21.23
2018-09-14T21:06:49.609Z,21.23
2018-09-14T21:09:18.743Z,21.24
2018-09-14T21:11:47.508Z,21.20
2018-09-14T21:14:16.360Z,21.19
2018-09-14T21:16:45.228Z,21.11
2018-09-14T21:19:14.081Z,21.07
2018-09-14T21:21:42.850Z,21.03
2018-09-14T21:24:12.113Z,20.99
2018-09-14T21:26:40.960Z,20.92
2018-09-14T21:29:09.711Z,20.86
2018-09-14T21:31:39.096Z,20.80
2018-09-14T21:34:07.965Z,20.74
2018-09-14T21:36:36.877Z,20.69
2018-09-14T21:39:09.340Z,20.61
2018-09-14T21:41:38.098Z,20.56
2018-09-14T21:44:07.102Z,20.51
2018-09-14T21:46:36.213Z,20.50
2018-09-14T21:49:05.065Z,20.49
2018-09-14T21:51:33.859Z,20.46
2018-09-14T21:54:03.135Z,20.43
2018-09-14T21:56:31.970Z,20.39
2018-09-14T21:59:00.866Z,20.32
2018-09-14T22:01:30.659Z,20.27
2018-09-14T22:04:00.725Z,20.19
2018-09-14T22:06:29.711Z,20.14
2018-09-14T22:08:58.579Z,20.09
2018-09-14T22:11:27.455Z,20.04
2018-09-14T22:13:56.309Z,20.00
2018-09-14T22:16:25.557Z,19.94
2018-09-14T22:18:54.416Z,19.98
2018-09-14T22:21:23.195Z,19.93
2018-09-14T22:23:52.212Z,19.84
2018-09-14T22:26:21.086Z,19.79
2018-09-14T22:28:49.833Z,19.77
2018-09-14T22:31:19.131Z,19.71
2018-09-14T22:33:47.845Z,19.65
2018-09-14T22:36:16.706Z,19.54
2018-09-14T22:38:45.935Z,19.46
2018-09-14T22:41:14.873Z,19.42
2018-09-14T22:43:43.736Z,19.33
2018-09-14T22:46:12.537Z,19.33
2018-09-14T22:48:41.354Z,19.29
2018-09-14T22:51:10.113Z,19.30
2018-09-14T22:53:39.354Z,19.19
2018-09-14T22:56:08.210Z,19.09
2018-09-14T22:58:36.968Z,19.01
2018-09-14T23:01:10.975Z,18.95
2018-09-14T23:03:39.847Z,19.03
2018-09-14T23:06:08.624Z,18.95
2018-09-14T23:08:37.874Z,18.99
2018-09-14T23:11:06.969Z,19.04
2018-09-14T23:13:35.851Z,19.03
2018-09-14T23:16:04.975Z,18.99
2018-09-14T23:18:33.845Z,18.92
2018-09-14T23:21:02.681Z,18.87
2018-09-14T23:23:31.836Z,18.79
2018-09-14T23:26:07.153Z,18.71
2018-09-14T23:28:36.387Z,18.73
2018-09-14T23:31:05.242Z,18.73
2018-09-14T23:33:34.128Z,18.71
2018-09-14T23:36:03.428Z,18.66
2018-09-14T23:38:32.336Z,18.62
2018-09-14T23:41:01.215Z,18.61
2018-09-14T23:43:30.298Z,18.59
2018-09-14T23:45:59.132Z,18.54
2018-09-14T23:48:27.983Z,18.54
2018-09-14T23:50:57.206Z,18.48
2018-09-14T23:53:26.088Z,18.45
2018-09-14T23:55:54.840Z,18.37
2018-09-14T23:58:23.986Z,18.30
